Time;durP1;ratioP1;P1;durP2;ratioP2;P2;SDS_P1;SDS_P2;PMS_P1;PMS_P2;Temp;Humidity;BMP_temperature;BMP_pressure;BME280_temperature;BME280_humidity;BME280_pressure;Samples;Min_cycle;Max_cycle;Signal;HPM_P1;HPM_P2
2021/08/23 00:01:59;;;;;;;7.03;3.78;;;17.80;88.00;;;;;;5009570;28;20250;-87
2021/08/23 00:04:24;;;;;;;5.00;3.85;;;17.90;88.50;;;;;;5008788;28;20229;-87
2021/08/23 00:06:52;;;;;;;4.25;3.45;;;17.80;88.70;;;;;;5008180;28;20210;-87
2021/08/23 00:09:19;;;;;;;5.10;3.90;;;17.90;87.70;;;;;;5010580;28;20193;-87
2021/08/23 00:11:46;;;;;;;4.25;3.67;;;18.00;88.00;;;;;;5012495;28;20232;-87
2021/08/23 00:14:12;;;;;;;4.43;4.03;;;17.90;88.80;;;;;;5012371;28;20220;-87
2021/08/23 00:16:37;;;;;;;4.15;3.28;;;17.90;87.40;;;;;;5009287;28;20220;-87
2021/08/23 00:19:03;;;;;;;4.05;3.65;;;18.00;87.30;;;;;;5013836;28;20745;-87
2021/08/23 00:21:29;;;;;;;6.88;3.95;;;18.00;88.10;;;;;;5003739;28;20231;-87
2021/08/23 00:24:06;;;;;;;4.68;3.67;;;17.90;88.00;;;;;;4998862;28;20306;-87
2021/08/23 00:26:33;;;;;;;3.88;3.50;;;17.90;87.60;;;;;;5009857;28;20241;-86
2021/08/23 00:28:58;;;;;;;4.53;3.95;;;17.90;88.20;;;;;;5018533;28;20220;-86
2021/08/23 00:31:24;;;;;;;5.20;3.72;;;17.90;87.50;;;;;;5033294;28;20213;-87
2021/08/23 00:33:50;;;;;;;5.43;3.42;;;17.90;88.00;;;;;;5025944;28;20755;-87
2021/08/23 00:36:16;;;;;;;3.42;3.10;;;18.00;87.80;;;;;;5012582;28;20663;-85
2021/08/23 00:38:42;;;;;;;5.18;3.55;;;18.00;87.50;;;;;;5031841;28;20245;-86
2021/08/23 00:41:07;;;;;;;4.55;3.80;;;18.00;87.60;;;;;;5026589;28;20201;-87
2021/08/23 00:43:33;;;;;;;4.25;3.85;;;18.00;87.20;;;;;;5004516;28;20284;-88
2021/08/23 00:46:03;;;;;;;4.03;3.60;;;18.00;87.70;;;;;;5006046;28;20191;-86
2021/08/23 00:48:30;;;;;;;6.82;3.30;;;17.90;88.10;;;;;;5008968;28;20228;-87
2021/08/23 00:50:55;;;;;;;5.05;3.65;;;17.80;88.60;;;;;;5007838;28;20181;-87
2021/08/23 00:53:21;;;;;;;4.20;3.22;;;18.00;88.60;;;;;;5007865;28;20224;-86
2021/08/23 00:55:48;;;;;;;3.88;3.40;;;18.00;87.90;;;;;;5007274;28;20783;-87
2021/08/23 00:58:17;;;;;;;4.43;3.40;;;18.10;87.00;;;;;;5010122;28;20201;-88
2021/08/23 01:00:45;;;;;;;5.55;3.40;;;18.00;88.00;;;;;;5008583;28;20206;-87
2021/08/23 01:03:19;;;;;;;4.78;3.30;;;18.10;87.50;;;;;;5006824;28;20239;-87
2021/08/23 01:05:45;;;;;;;6.10;3.55;;;18.00;87.70;;;;;;5008431;28;20264;-87
2021/08/23 01:08:30;;;;;;;4.00;3.63;;;18.00;87.00;;;;;;5010271;28;20224;-87
2021/08/23 01:10:57;;;;;;;4.50;3.10;;;18.00;87.80;;;;;;5007866;28;20513;-87
2021/08/23 01:13:25;;;;;;;3.72;3.33;;;17.90;87.90;;;;;;5005628;28;20223;-88
2021/08/23 01:15:51;;;;;;;3.60;3.30;;;17.90;88.50;;;;;;5013344;28;20215;-88
2021/08/23 01:18:17;;;;;;;5.75;3.65;;;17.80;88.20;;;;;;5014888;28;20200;-88
2021/08/23 01:20:45;;;;;;;4.07;3.43;;;17.80;88.90;;;;;;5007464;28;20189;-87
2021/08/23 01:23:12;;;;;;;5.07;3.33;;;17.80;88.50;;;;;;5009305;28;20249;-87
2021/08/23 01:25:39;;;;;;;3.63;3.33;;;17.90;88.20;;;;;;5008971;28;20188;-87
2021/08/23 01:28:41;;;;;;;4.22;3.30;;;18.00;87.80;;;;;;5006337;28;20215;-87
2021/08/23 01:31:14;;;;;;;7.60;3.55;;;18.00;87.30;;;;;;5007479;28;20252;-88
2021/08/23 01:33:41;;;;;;;5.15;3.92;;;18.10;87.20;;;;;;5007433;28;20255;-87
2021/08/23 01:36:07;;;;;;;4.65;3.38;;;18.20;86.90;;;;;;5009110;28;20260;-86
2021/08/23 01:38:33;;;;;;;5.07;3.40;;;18.20;86.80;;;;;;5007885;28;20207;-87
2021/08/23 01:41:04;;;;;;;3.53;3.22;;;18.20;87.20;;;;;;5007797;28;20205;-87
2021/08/23 01:43:30;;;;;;;6.40;3.28;;;18.30;87.10;;;;;;5009233;28;20618;-88
2021/08/23 01:45:57;;;;;;;5.22;3.38;;;18.30;86.70;;;;;;5008275;28;20634;-87
2021/08/23 01:48:23;;;;;;;5.97;3.40;;;18.40;86.80;;;;;;5007896;28;20217;-87
2021/08/23 01:50:48;;;;;;;5.53;3.40;;;18.30;87.10;;;;;;5003086;28;20216;-87
2021/08/23 01:53:16;;;;;;;4.25;3.85;;;18.30;87.50;;;;;;5012461;28;20236;-87
2021/08/23 01:55:45;;;;;;;6.28;3.30;;;18.30;87.00;;;;;;5010294;28;20279;-87
2021/08/23 01:58:11;;;;;;;4.63;3.33;;;18.40;87.40;;;;;;5010515;28;20208;-87
2021/08/23 02:00:37;;;;;;;5.82;3.22;;;18.40;87.40;;;;;;5028587;28;20284;-88
2021/08/23 02:03:03;;;;;;;4.70;3.50;;;18.30;87.70;;;;;;5010115;28;20365;-87
2021/08/23 02:05:29;;;;;;;5.10;3.58;;;18.30;87.40;;;;;;5010195;28;20700;-87
2021/08/23 02:07:55;;;;;;;4.03;3.60;;;18.10;87.90;;;;;;4998209;28;20869;-88
2021/08/23 02:10:21;;;;;;;6.47;3.90;;;18.10;87.80;;;;;;5011607;28;20213;-87
2021/08/23 02:12:47;;;;;;;7.65;3.90;;;18.00;88.70;;;;;;5011681;28;20216;-87
2021/08/23 02:15:12;;;;;;;6.25;3.83;;;17.90;89.90;;;;;;5029143;28;20200;-87
2021/08/23 02:17:38;;;;;;;3.88;3.20;;;17.70;90.60;;;;;;5012105;28;20196;-88
2021/08/23 02:20:09;;;;;;;3.75;3.35;;;17.80;90.80;;;;;;5011053;28;20195;-87
2021/08/23 02:22:36;;;;;;;3.58;3.28;;;17.70;91.00;;;;;;5004461;28;20240;-87
2021/08/23 02:25:06;;;;;;;3.63;3.20;;;17.80;90.70;;;;;;5011381;28;20188;-87
2021/08/23 02:27:32;;;;;;;7.10;3.83;;;17.80;90.40;;;;;;5011015;28;20296;-87
2021/08/23 02:29:57;;;;;;;6.50;3.67;;;17.90;89.70;;;;;;5011241;28;20189;-87
2021/08/23 02:32:23;;;;;;;4.50;3.42;;;17.90;90.10;;;;;;5012628;28;20284;-88
2021/08/23 02:34:49;;;;;;;5.53;3.70;;;17.90;89.40;;;;;;5010136;28;20201;-87
2021/08/23 02:37:14;;;;;;;4.65;3.50;;;17.90;90.10;;;;;;5008520;28;20300;-87
2021/08/23 02:39:40;;;;;;;4.03;3.63;;;17.80;89.70;;;;;;5011090;28;20204;-87
2021/08/23 02:42:06;;;;;;;7.38;4.15;;;18.00;89.10;;;;;;5012129;28;20229;-88
2021/08/23 02:44:32;;;;;;;4.72;3.83;;;18.00;89.80;;;;;;5009639;28;20196;-88
2021/08/23 02:46:58;;;;;;;6.00;3.45;;;17.90;89.70;;;;;;5011366;28;20232;-87
2021/08/23 02:49:24;;;;;;;3.83;3.53;;;17.90;88.90;;;;;;5011351;28;20228;-87
2021/08/23 02:51:50;;;;;;;6.80;3.75;;;17.80;89.70;;;;;;5009104;28;20870;-87
2021/08/23 02:54:16;;;;;;;6.45;3.83;;;17.80;89.30;;;;;;5011475;28;20762;-87
2021/08/23 02:56:41;;;;;;;5.35;3.30;;;17.80;89.60;;;;;;5010212;28;20544;-87
2021/08/23 02:59:07;;;;;;;4.47;3.60;;;17.80;89.30;;;;;;5010379;28;20193;-87
2021/08/23 03:01:33;;;;;;;3.95;3.15;;;17.90;89.10;;;;;;4991662;28;20315;-87
2021/08/23 03:03:58;;;;;;;4.95;3.47;;;17.80;89.70;;;;;;5009350;28;20660;-87
2021/08/23 03:06:24;;;;;;;5.57;3.40;;;17.70;90.00;;;;;;5010582;28;20204;-87
2021/08/23 03:08:50;;;;;;;4.75;3.22;;;17.70;89.50;;;;;;5015037;28;21637;-87
2021/08/23 03:11:15;;;;;;;4.18;3.17;;;17.70;90.00;;;;;;5027223;28;20196;-87
2021/08/23 03:13:42;;;;;;;4.53;3.30;;;17.60;90.90;;;;;;5011454;28;20189;-86
2021/08/23 03:16:08;;;;;;;6.37;3.33;;;17.50;90.90;;;;;;5008243;28;20192;-88
2021/08/23 03:18:35;;;;;;;5.13;3.10;;;17.50;90.90;;;;;;5012044;28;20205;-86
2021/08/23 03:21:01;;;;;;;5.43;3.60;;;17.40;91.70;;;;;;5035399;28;20204;-86
2021/08/23 03:23:27;;;;;;;5.70;3.77;;;17.50;91.30;;;;;;5006485;28;20214;-87
2021/08/23 03:25:53;;;;;;;4.13;3.70;;;17.40;91.50;;;;;;5003198;28;20194;-87
2021/08/23 03:28:18;;;;;;;4.50;4.10;;;17.40;91.50;;;;;;5009174;28;20256;-85
2021/08/23 03:30:44;;;;;;;4.93;3.60;;;17.30;92.60;;;;;;5025292;28;20191;-85
2021/08/23 03:33:11;;;;;;;5.00;3.43;;;17.30;92.00;;;;;;5032994;28;20715;-87
2021/08/23 03:35:37;;;;;;;4.30;3.50;;;17.20;92.80;;;;;;5009958;28;20213;-87
2021/08/23 03:38:02;;;;;;;6.67;4.10;;;17.30;92.60;;;;;;5011662;28;20194;-86
2021/08/23 03:40:29;;;;;;;4.13;3.47;;;17.30;92.80;;;;;;5009368;28;20204;-87
2021/08/23 03:42:55;;;;;;;5.10;3.63;;;17.10;93.60;;;;;;5007834;28;20358;-87
2021/08/23 03:45:21;;;;;;;6.00;3.73;;;17.10;93.10;;;;;;5008866;28;20223;-87
2021/08/23 03:47:47;;;;;;;3.90;3.50;;;17.10;93.80;;;;;;5010349;28;20253;-86
2021/08/23 03:50:13;;;;;;;6.17;3.60;;;17.20;93.50;;;;;;5009936;28;20199;-87
2021/08/23 03:52:38;;;;;;;4.10;3.40;;;17.30;92.70;;;;;;5007926;28;20227;-87
2021/08/23 03:55:05;;;;;;;3.80;3.40;;;17.30;92.80;;;;;;5006833;28;20198;-86
2021/08/23 03:57:33;;;;;;;5.00;3.17;;;17.20;93.50;;;;;;5009385;28;20270;-87
2021/08/23 03:59:59;;;;;;;4.00;3.43;;;17.20;92.70;;;;;;5010312;28;20285;-86
2021/08/23 04:02:25;;;;;;;4.00;3.70;;;17.30;92.90;;;;;;5012683;28;20219;-86
2021/08/23 04:04:50;;;;;;;4.67;3.53;;;17.30;92.80;;;;;;5015473;28;20202;-86
2021/08/23 04:07:16;;;;;;;4.13;3.20;;;17.30;93.50;;;;;;5026481;28;20692;-87
2021/08/23 04:09:42;;;;;;;5.15;3.95;;;17.30;93.20;;;;;;5010653;28;20230;-87
2021/08/23 04:12:08;;;;;;;3.97;3.60;;;17.20;92.70;;;;;;5002950;28;20232;-87
2021/08/23 04:14:33;;;;;;;3.53;3.22;;;17.20;93.40;;;;;;4997941;28;20649;-87
2021/08/23 04:16:59;;;;;;;6.33;3.87;;;17.30;93.10;;;;;;5008770;28;20237;-87
2021/08/23 04:19:25;;;;;;;4.38;3.58;;;17.40;92.30;;;;;;5007319;28;20197;-87
2021/08/23 04:21:51;;;;;;;7.03;3.42;;;17.50;92.50;;;;;;5007533;28;20226;-87
2021/08/23 04:24:17;;;;;;;6.50;3.28;;;17.40;92.70;;;;;;5010546;28;20179;-86
2021/08/23 04:26:42;;;;;;;4.10;3.70;;;17.50;92.40;;;;;;4998485;28;20230;-88
2021/08/23 04:29:08;;;;;;;5.75;3.28;;;17.50;92.10;;;;;;5001736;28;20265;-87
2021/08/23 04:31:34;;;;;;;3.63;3.20;;;17.40;92.10;;;;;;5004706;28;20225;-87
2021/08/23 04:34:00;;;;;;;4.47;3.65;;;17.20;93.20;;;;;;5004169;28;20187;-88
2021/08/23 04:36:25;;;;;;;5.22;3.63;;;17.30;93.20;;;;;;5003654;28;20195;-86
2021/08/23 04:38:51;;;;;;;3.95;3.55;;;17.20;94.00;;;;;;4994862;28;20753;-87
2021/08/23 04:41:17;;;;;;;3.70;3.40;;;17.20;94.50;;;;;;5009784;28;20212;-87
2021/08/23 04:43:43;;;;;;;9.60;5.00;;;17.30;94.50;;;;;;5005749;28;20191;-88
2021/08/23 04:46:08;;;;;;;7.55;4.15;;;17.30;94.00;;;;;;5007790;28;20762;-87
2021/08/23 04:48:34;;;;;;;6.57;4.95;;;17.30;93.70;;;;;;5009668;28;20303;-88
2021/08/23 04:51:02;;;;;;;11.17;7.07;;;17.30;93.90;;;;;;4999910;28;20284;-87
2021/08/23 04:53:29;;;;;;;7.10;5.60;;;17.30;94.30;;;;;;5000362;28;20246;-87
2021/08/23 04:55:55;;;;;;;7.63;4.72;;;17.30;93.80;;;;;;5009471;28;20711;-88
2021/08/23 04:58:22;;;;;;;6.53;4.23;;;17.30;94.30;;;;;;4997651;28;20204;-88
2021/08/23 05:00:48;;;;;;;5.90;4.80;;;17.30;94.00;;;;;;4988512;28;20200;-86
2021/08/23 05:03:13;;;;;;;5.23;3.80;;;17.20;95.00;;;;;;5015915;28;20736;-88
2021/08/23 05:05:41;;;;;;;5.20;3.80;;;17.10;94.30;;;;;;4996862;28;20283;-87
2021/08/23 05:08:06;;;;;;;4.73;4.23;;;17.10;95.30;;;;;;5001403;28;20706;-87
2021/08/23 05:10:33;;;;;;;9.00;4.30;;;17.10;95.20;;;;;;5003156;28;20194;-87
2021/08/23 05:12:58;;;;;;;6.67;3.77;;;17.10;95.00;;;;;;5012942;28;20217;-87
2021/08/23 05:15:24;;;;;;;4.57;3.90;;;17.10;94.00;;;;;;5011227;28;20360;-87
2021/08/23 05:17:51;;;;;;;6.03;3.97;;;17.20;93.60;;;;;;5007014;28;20959;-87
2021/08/23 05:20:17;;;;;;;3.90;3.60;;;17.20;93.80;;;;;;5002978;28;20191;-87
2021/08/23 05:22:43;;;;;;;6.27;4.10;;;17.10;94.30;;;;;;5007952;28;20220;-87
2021/08/23 05:25:08;;;;;;;4.83;3.97;;;17.20;93.70;;;;;;5003876;28;20195;-85
2021/08/23 05:27:35;;;;;;;4.07;3.40;;;17.20;93.10;;;;;;5014829;28;20222;-88
2021/08/23 05:30:05;;;;;;;5.90;4.20;;;17.10;93.60;;;;;;5003098;28;20660;-86
2021/08/23 05:32:32;;;;;;;4.57;3.53;;;17.10;93.90;;;;;;5003471;28;20286;-87
2021/08/23 05:34:58;;;;;;;4.77;3.50;;;17.00;93.90;;;;;;4999711;28;20203;-87
2021/08/23 05:37:24;;;;;;;4.13;3.77;;;17.00;94.60;;;;;;5003986;28;20266;-87
2021/08/23 05:39:50;;;;;;;4.87;3.80;;;17.00;94.00;;;;;;5004158;28;20193;-87
2021/08/23 05:42:15;;;;;;;5.90;3.50;;;17.10;92.90;;;;;;5003244;28;20865;-87
2021/08/23 05:44:41;;;;;;;5.90;3.60;;;17.10;93.00;;;;;;5000322;28;20202;-88
2021/08/23 05:47:07;;;;;;;4.97;3.50;;;17.00;93.00;;;;;;5002747;28;20198;-87
2021/08/23 05:49:33;;;;;;;4.37;3.47;;;17.10;92.90;;;;;;5006641;28;20186;-88
2021/08/23 05:52:00;;;;;;;5.97;4.00;;;17.20;92.30;;;;;;5007752;28;20224;-87
2021/08/23 05:54:25;;;;;;;8.43;3.70;;;17.10;92.80;;;;;;5006913;28;20193;-87
2021/08/23 05:56:53;;;;;;;5.67;4.10;;;17.20;92.40;;;;;;5000728;28;20196;-88
2021/08/23 05:59:19;;;;;;;5.20;3.70;;;17.20;92.80;;;;;;5015852;28;20230;-88
2021/08/23 06:01:44;;;;;;;6.07;4.07;;;17.10;93.20;;;;;;5001416;28;20305;-88
2021/08/23 06:04:13;;;;;;;5.50;3.90;;;17.00;93.90;;;;;;5005033;28;20210;-87
2021/08/23 06:06:39;;;;;;;4.33;3.90;;;17.00;93.70;;;;;;5018330;28;20196;-86
2021/08/23 06:09:04;;;;;;;4.57;3.67;;;17.10;92.90;;;;;;5003541;28;20234;-87
2021/08/23 06:11:30;;;;;;;4.40;4.00;;;17.00;93.80;;;;;;5006083;28;20222;-87
2021/08/23 06:13:58;;;;;;;4.43;3.80;;;17.10;93.80;;;;;;5000675;28;20201;-86
2021/08/23 06:16:23;;;;;;;7.43;4.07;;;17.10;93.30;;;;;;5003410;28;20204;-87
2021/08/23 06:18:49;;;;;;;4.60;3.63;;;17.10;93.60;;;;;;5023692;28;20239;-87
2021/08/23 06:21:14;;;;;;;4.83;3.90;;;17.20;93.30;;;;;;5005091;28;20229;-87
2021/08/23 06:23:40;;;;;;;5.07;3.73;;;17.10;93.40;;;;;;5008395;28;20289;-87
2021/08/23 06:26:06;;;;;;;5.67;3.87;;;17.20;93.20;;;;;;5007924;28;20213;-87
2021/08/23 06:28:31;;;;;;;4.10;3.63;;;17.20;92.20;;;;;;5002820;28;20254;-87
2021/08/23 06:30:57;;;;;;;6.23;4.00;;;17.30;92.70;;;;;;5001282;28;20205;-87
2021/08/23 06:33:23;;;;;;;5.07;3.90;;;17.40;92.60;;;;;;5009030;28;20214;-88
2021/08/23 06:35:48;;;;;;;4.67;3.20;;;17.20;93.10;;;;;;5005737;28;20192;-86
2021/08/23 06:38:14;;;;;;;5.73;4.27;;;17.40;92.40;;;;;;5009929;28;20672;-87
2021/08/23 06:40:40;;;;;;;5.67;3.77;;;17.50;92.00;;;;;;5012739;28;20189;-87
2021/08/23 06:43:06;;;;;;;3.60;3.30;;;17.60;92.50;;;;;;5005682;28;20588;-88
2021/08/23 06:45:32;;;;;;;4.87;4.07;;;17.50;91.50;;;;;;5019140;28;20229;-87
2021/08/23 06:47:57;;;;;;;6.60;3.93;;;17.60;90.80;;;;;;5030697;28;20237;-85
2021/08/23 06:50:23;;;;;;;5.53;3.77;;;17.70;91.30;;;;;;5029778;28;20185;-87
2021/08/23 06:52:49;;;;;;;5.00;4.20;;;17.70;90.70;;;;;;5018767;28;20308;-87
2021/08/23 06:55:15;;;;;;;5.10;3.87;;;17.60;90.70;;;;;;5024110;28;20202;-88
2021/08/23 06:57:40;;;;;;;7.03;3.83;;;17.70;91.10;;;;;;5013378;28;20622;-88
2021/08/23 07:00:07;;;;;;;4.30;3.90;;;17.70;90.90;;;;;;5017166;28;20204;-88
2021/08/23 07:02:32;;;;;;;4.57;4.10;;;17.60;90.60;;;;;;5011732;28;20222;-88
2021/08/23 07:04:58;;;;;;;5.90;4.20;;;17.80;91.30;;;;;;5014277;28;20545;-88
2021/08/23 07:07:23;;;;;;;6.10;4.63;;;18.00;89.00;;;;;;5019396;28;20689;-88
2021/08/23 07:09:49;;;;;;;5.23;4.03;;;17.80;90.20;;;;;;4999181;28;20196;-88
2021/08/23 07:12:15;;;;;;;4.20;3.80;;;17.90;89.70;;;;;;5003344;28;20779;-88
2021/08/23 07:14:41;;;;;;;4.30;3.90;;;18.00;89.60;;;;;;5010204;28;20269;-88
2021/08/23 07:17:07;;;;;;;6.07;3.60;;;17.80;90.00;;;;;;5009397;28;20197;-87
2021/08/23 07:19:34;;;;;;;5.73;4.00;;;17.80;90.40;;;;;;5001081;28;20708;-88
2021/08/23 07:22:00;;;;;;;4.30;3.60;;;17.90;90.50;;;;;;5003398;28;20222;-87
2021/08/23 07:24:26;;;;;;;4.72;3.92;;;18.10;89.50;;;;;;5008061;28;20668;-87
2021/08/23 07:26:51;;;;;;;4.70;3.63;;;18.20;88.60;;;;;;5005467;28;20285;-88
2021/08/23 07:29:19;;;;;;;5.33;4.03;;;18.10;87.90;;;;;;5006436;28;20221;-88
2021/08/23 07:31:45;;;;;;;7.73;3.93;;;18.00;88.90;;;;;;5001547;28;20218;-88
2021/08/23 07:34:10;;;;;;;4.63;4.00;;;18.10;87.90;;;;;;5000183;28;20204;-87
2021/08/23 07:36:36;;;;;;;4.40;4.00;;;18.20;87.80;;;;;;5008547;28;20545;-86
2021/08/23 07:39:03;;;;;;;4.93;4.27;;;18.30;87.00;;;;;;5006150;28;20212;-87
2021/08/23 07:41:28;;;;;;;5.77;3.83;;;18.40;87.10;;;;;;5007533;28;20221;-88
2021/08/23 07:43:54;;;;;;;5.30;4.27;;;18.40;86.40;;;;;;5009199;28;20210;-88
2021/08/23 07:46:20;;;;;;;5.50;4.40;;;18.10;88.60;;;;;;5006648;28;20195;-87
2021/08/23 07:48:45;;;;;;;5.40;4.03;;;18.30;86.40;;;;;;5003641;28;20560;-88
2021/08/23 07:51:12;;;;;;;6.10;4.07;;;18.40;85.70;;;;;;5008037;28;20199;-87
2021/08/23 07:53:38;;;;;;;6.60;3.93;;;18.40;87.30;;;;;;5008897;28;20192;-87
2021/08/23 07:56:04;;;;;;;5.65;4.38;;;18.50;86.00;;;;;;5019156;28;20656;-88
2021/08/23 07:58:30;;;;;;;4.43;4.03;;;18.70;85.30;;;;;;5001249;28;20537;-87
2021/08/23 08:00:55;;;;;;;4.88;4.28;;;18.80;84.50;;;;;;5000680;28;20246;-87
2021/08/23 08:03:21;;;;;;;5.15;4.13;;;18.80;84.00;;;;;;5007475;28;20233;-88
2021/08/23 08:05:47;;;;;;;5.32;3.78;;;18.80;84.00;;;;;;5008514;28;20201;-88
2021/08/23 08:08:12;;;;;;;5.55;4.25;;;18.90;83.50;;;;;;5009822;28;20224;-87
2021/08/23 08:10:38;;;;;;;5.78;4.10;;;19.00;84.00;;;;;;5005721;28;20211;-87
2021/08/23 08:13:06;;;;;;;4.40;4.00;;;18.90;84.20;;;;;;5008790;28;20227;-88
2021/08/23 08:15:32;;;;;;;4.13;3.80;;;19.00;84.80;;;;;;5004848;28;20189;-88
2021/08/23 08:17:58;;;;;;;4.55;3.95;;;19.00;83.60;;;;;;5008340;28;20915;-87
2021/08/23 08:20:23;;;;;;;3.95;3.55;;;18.90;84.10;;;;;;5008250;28;20204;-87
2021/08/23 08:22:49;;;;;;;4.60;3.67;;;19.10;84.00;;;;;;5006916;28;20208;-88
2021/08/23 08:25:15;;;;;;;3.72;3.42;;;19.20;83.10;;;;;;5008388;28;20205;-88
2021/08/23 08:27:41;;;;;;;4.40;4.00;;;19.10;83.70;;;;;;4991456;28;20254;-88
2021/08/23 08:30:09;;;;;;;5.13;4.63;;;19.00;84.20;;;;;;5021352;28;20198;-87
2021/08/23 08:32:34;;;;;;;5.22;3.83;;;19.00;86.00;;;;;;5007408;28;20205;-88
2021/08/23 08:35:00;;;;;;;4.43;3.92;;;19.00;84.90;;;;;;5016935;28;20207;-87
2021/08/23 08:37:26;;;;;;;4.30;4.00;;;18.70;86.10;;;;;;5000582;28;20188;-87
2021/08/23 08:39:52;;;;;;;9.02;5.07;;;18.70;87.00;;;;;;5009651;28;20556;-88
2021/08/23 08:42:19;;;;;;;5.53;4.43;;;18.70;87.10;;;;;;5007590;28;20212;-88
2021/08/23 08:44:48;;;;;;;4.97;4.35;;;18.70;86.00;;;;;;5003948;28;20217;-87
2021/08/23 08:47:18;;;;;;;5.70;5.10;;;18.60;87.70;;;;;;4996305;28;20204;-87
2021/08/23 08:49:44;;;;;;;8.57;5.25;;;18.50;87.70;;;;;;5008797;28;20199;-88
2021/08/23 08:52:11;;;;;;;5.30;4.80;;;18.50;87.90;;;;;;5006737;28;20255;-87
2021/08/23 08:54:41;;;;;;;7.22;5.25;;;18.50;88.80;;;;;;5012118;28;20566;-87
2021/08/23 08:57:07;;;;;;;8.48;5.50;;;18.60;88.00;;;;;;5009271;28;20179;-88
2021/08/23 08:59:34;;;;;;;6.28;4.70;;;18.60;88.00;;;;;;5000205;28;20208;-87
2021/08/23 09:02:00;;;;;;;5.38;4.88;;;18.60;88.10;;;;;;5002187;28;20208;-88
2021/08/23 09:04:37;;;;;;;5.30;4.30;;;18.70;87.90;;;;;;5018941;28;20221;-88
2021/08/23 09:07:05;;;;;;;7.35;5.20;;;18.70;86.70;;;;;;5009939;28;20191;-88
2021/08/23 09:09:32;;;;;;;5.15;4.40;;;18.50;87.70;;;;;;5008073;28;20688;-88
2021/08/23 09:12:02;;;;;;;8.25;4.70;;;18.60;87.80;;;;;;5024220;28;20278;-88
2021/08/23 09:14:29;;;;;;;5.85;4.75;;;18.50;88.40;;;;;;5024744;28;20203;-87
2021/08/23 09:17:03;;;;;;;4.88;4.32;;;18.60;88.30;;;;;;5007061;28;20211;-88
2021/08/23 09:19:29;;;;;;;5.25;4.85;;;18.80;86.60;;;;;;5010453;28;20190;-88
2021/08/23 09:22:12;;;;;;;5.32;4.70;;;19.00;85.00;;;;;;5007466;28;20242;-87
2021/08/23 09:24:40;;;;;;;5.20;4.43;;;19.20;84.80;;;;;;5006867;28;20264;-88
2021/08/23 09:27:10;;;;;;;5.13;4.38;;;19.20;84.70;;;;;;5011397;28;20220;-87
2021/08/23 09:29:59;;;;;;;5.22;4.10;;;19.30;85.10;;;;;;5017503;28;20186;-87
2021/08/23 09:32:48;;;;;;;5.18;4.68;;;19.40;84.20;;;;;;5009446;28;20233;-87
2021/08/23 09:35:33;;;;;;;5.47;4.75;;;19.40;84.20;;;;;;5020160;28;20174;-87
2021/08/23 09:37:59;;;;;;;7.55;5.28;;;19.40;85.20;;;;;;5009836;28;20194;-87
2021/08/23 09:40:31;;;;;;;5.25;4.72;;;19.10;86.10;;;;;;5010296;28;20239;-87
2021/08/23 09:43:11;;;;;;;5.28;4.80;;;19.20;85.00;;;;;;5012643;28;20254;-87
2021/08/23 09:45:38;;;;;;;5.18;4.70;;;19.20;84.30;;;;;;5014661;28;20185;-87
2021/08/23 09:48:07;;;;;;;4.65;4.18;;;19.30;83.90;;;;;;5015702;28;20710;-87
2021/08/23 09:50:47;;;;;;;5.47;4.97;;;19.30;82.60;;;;;;5014020;28;20258;-87
2021/08/23 09:53:15;;;;;;;4.88;4.38;;;19.30;83.10;;;;;;5009787;28;20343;-87
2021/08/23 09:55:46;;;;;;;5.05;4.65;;;19.30;83.40;;;;;;5029884;28;20637;-87
2021/08/23 09:58:13;;;;;;;5.38;4.47;;;19.30;83.30;;;;;;5012954;28;20271;-87
2021/08/23 10:00:41;;;;;;;4.97;4.57;;;19.40;82.90;;;;;;5014906;28;20536;-87
2021/08/23 10:03:14;;;;;;;5.18;4.57;;;19.40;83.20;;;;;;5010016;28;20259;-87
2021/08/23 10:05:45;;;;;;;5.15;4.30;;;19.50;83.30;;;;;;5013681;28;20270;-87
2021/08/23 10:08:15;;;;;;;8.57;4.72;;;19.60;83.70;;;;;;5015798;28;20217;-86
2021/08/23 10:10:43;;;;;;;6.53;5.22;;;19.50;82.60;;;;;;5013016;28;20656;-87
2021/08/23 10:13:09;;;;;;;4.95;4.53;;;19.50;84.40;;;;;;5015443;28;20228;-86
2021/08/23 10:15:37;;;;;;;6.28;4.40;;;19.40;81.80;;;;;;5022790;28;20201;-87
2021/08/23 10:18:04;;;;;;;5.65;4.57;;;19.50;83.00;;;;;;5020591;28;20186;-87
2021/08/23 10:20:30;;;;;;;5.90;4.57;;;19.70;81.60;;;;;;5018570;28;20196;-87
2021/08/23 10:22:57;;;;;;;4.55;4.15;;;19.70;82.00;;;;;;5038061;28;20233;-87
2021/08/23 10:25:23;;;;;;;4.53;4.13;;;19.80;82.90;;;;;;5019994;28;20212;-87
2021/08/23 10:27:49;;;;;;;5.32;4.05;;;19.80;82.70;;;;;;5014198;28;20700;-87
2021/08/23 10:30:28;;;;;;;5.03;4.55;;;19.80;83.00;;;;;;5014277;28;20193;-87
2021/08/23 10:32:55;;;;;;;6.85;4.60;;;20.00;80.40;;;;;;5012782;28;20206;-88
2021/08/23 10:35:22;;;;;;;7.43;5.38;;;20.00;80.50;;;;;;5016729;28;20682;-87
2021/08/23 10:37:50;;;;;;;4.95;3.85;;;19.90;83.00;;;;;;5019005;28;20199;-87
2021/08/23 10:40:21;;;;;;;3.80;3.50;;;19.60;84.10;;;;;;5012768;28;20190;-87
2021/08/23 10:42:47;;;;;;;5.78;3.45;;;19.60;84.00;;;;;;5017473;28;20302;-87
2021/08/23 10:45:18;;;;;;;5.00;3.42;;;19.40;86.30;;;;;;5014705;28;20196;-87
2021/08/23 10:47:45;;;;;;;6.72;3.67;;;19.60;83.80;;;;;;5019973;28;20221;-87
2021/08/23 10:50:22;;;;;;;4.93;3.65;;;19.60;83.20;;;;;;5015326;28;20204;-87
2021/08/23 10:52:49;;;;;;;3.83;3.47;;;19.60;82.20;;;;;;5016390;28;20261;-87
2021/08/23 10:55:31;;;;;;;4.13;3.35;;;19.80;83.80;;;;;;5017051;28;20308;-87
2021/08/23 10:58:03;;;;;;;4.07;3.38;;;19.80;83.50;;;;;;5006544;28;20196;-87
2021/08/23 11:00:40;;;;;;;5.63;3.10;;;19.90;82.30;;;;;;5027089;28;20195;-88
2021/08/23 11:03:06;;;;;;;5.32;2.90;;;19.80;83.10;;;;;;5021319;28;20324;-87
2021/08/23 11:05:34;;;;;;;3.63;3.13;;;19.80;82.90;;;;;;5015004;28;20211;-88
2021/08/23 11:08:03;;;;;;;3.38;3.08;;;19.70;83.10;;;;;;5019179;28;20204;-87
2021/08/23 11:10:32;;;;;;;4.05;3.20;;;19.90;83.00;;;;;;5016701;28;20192;-88
2021/08/23 11:13:08;;;;;;;2.50;2.30;;;20.20;83.00;;;;;;5017678;28;20700;-87
2021/08/23 11:15:34;;;;;;;2.85;2.60;;;20.20;81.10;;;;;;5015996;28;20212;-87
2021/08/23 11:18:04;;;;;;;3.03;2.60;;;20.20;80.50;;;;;;5035564;28;20189;-87
2021/08/23 11:20:35;;;;;;;2.80;2.60;;;20.50;81.70;;;;;;5019264;28;20280;-87
2021/08/23 11:23:07;;;;;;;2.60;2.40;;;20.60;78.90;;;;;;5009265;28;20213;-87
2021/08/23 11:25:48;;;;;;;2.30;2.10;;;20.70;80.40;;;;;;5016624;28;20206;-87
2021/08/23 11:28:15;;;;;;;2.90;2.40;;;20.90;78.00;;;;;;5015286;28;20210;-86
2021/08/23 11:30:46;;;;;;;2.60;2.40;;;21.20;77.30;;;;;;5014812;28;20691;-87
2021/08/23 11:33:22;;;;;;;2.92;2.67;;;21.50;78.20;;;;;;5010797;28;20255;-89
2021/08/23 11:35:48;;;;;;;2.42;2.33;;;21.60;77.50;;;;;;5015434;28;20262;-88
2021/08/23 11:38:13;;;;;;;2.60;2.40;;;21.60;77.00;;;;;;5008578;28;20552;-87
2021/08/23 11:40:40;;;;;;;3.42;2.90;;;21.60;76.20;;;;;;5003051;28;20200;-87
2021/08/23 11:43:08;;;;;;;2.25;2.10;;;21.90;76.60;;;;;;5019756;28;20217;-87
2021/08/23 11:45:41;;;;;;;2.50;2.30;;;22.00;75.90;;;;;;5033598;28;20208;-87
2021/08/23 11:48:07;;;;;;;2.03;1.92;;;21.90;74.30;;;;;;5021082;28;20221;-87
2021/08/23 11:50:33;;;;;;;2.00;1.90;;;22.00;72.20;;;;;;5016312;28;20197;-87
2021/08/23 11:53:05;;;;;;;2.80;2.33;;;22.00;72.50;;;;;;5021117;28;20232;-88
2021/08/23 11:55:36;;;;;;;2.30;2.10;;;22.00;73.90;;;;;;5021335;28;20186;-87
2021/08/23 11:58:11;;;;;;;2.30;2.10;;;22.10;75.20;;;;;;5035887;28;20704;-87
2021/08/23 12:00:38;;;;;;;2.50;2.30;;;22.00;75.60;;;;;;5018138;28;20192;-88
2021/08/23 12:03:15;;;;;;;3.63;2.38;;;21.90;74.00;;;;;;5015784;28;20218;-88
2021/08/23 12:05:42;;;;;;;3.05;2.30;;;22.10;74.50;;;;;;5011544;28;20675;-88
2021/08/23 12:08:20;;;;;;;2.60;2.40;;;22.20;75.50;;;;;;5015817;28;20201;-89
2021/08/23 12:10:56;;;;;;;4.40;2.70;;;21.80;74.30;;;;;;5015485;28;20662;-88
2021/08/23 12:13:34;;;;;;;2.42;2.22;;;21.50;75.70;;;;;;5012933;28;20251;-89
2021/08/23 12:16:02;;;;;;;2.75;2.55;;;21.50;77.80;;;;;;5012888;28;20177;-89
2021/08/23 12:18:30;;;;;;;2.20;2.10;;;21.70;75.80;;;;;;5012927;28;20193;-89
2021/08/23 12:21:17;;;;;;;2.47;2.28;;;22.10;74.90;;;;;;5014421;28;20205;-89
2021/08/23 12:23:50;;;;;;;3.05;2.35;;;22.20;73.60;;;;;;5018349;28;20190;-89
2021/08/23 12:26:23;;;;;;;2.45;2.30;;;22.70;70.80;;;;;;5018657;28;20538;-91
2021/08/23 12:28:49;;;;;;;3.15;2.15;;;23.30;69.20;;;;;;5035083;28;20236;-90
2021/08/23 12:31:16;;;;;;;2.10;2.00;;;23.60;68.30;;;;;;5024029;28;20276;-88
2021/08/23 12:33:42;;;;;;;2.17;2.08;;;23.80;65.80;;;;;;5017153;28;20276;-89
2021/08/23 12:36:07;;;;;;;2.60;2.40;;;23.80;65.60;;;;;;5021476;28;20228;-87
2021/08/23 12:38:33;;;;;;;1.90;1.80;;;23.70;66.00;;;;;;5014213;28;20198;-87
2021/08/23 12:40:59;;;;;;;2.28;2.10;;;23.80;66.20;;;;;;5013598;28;20197;-89
2021/08/23 12:43:24;;;;;;;2.10;2.00;;;24.00;67.00;;;;;;5013339;28;20213;-89
2021/08/23 12:45:50;;;;;;;1.90;1.80;;;24.40;64.20;;;;;;5033879;28;20217;-88
2021/08/23 12:48:15;;;;;;;2.20;2.10;;;24.80;61.90;;;;;;5021017;28;20221;-88
2021/08/23 12:50:41;;;;;;;2.00;1.90;;;25.30;60.40;;;;;;5019225;28;20251;-89